createdAt,value
2022-12-08T00:01:33.266Z,100966.50
2022-12-08T00:04:03.359Z,100966.47
2022-12-08T00:07:03.070Z,100964.69
2022-12-08T00:09:39.458Z,100960.38
2022-12-08T00:12:09.596Z,100963.88
2022-12-08T00:14:41.756Z,100954.34
2022-12-08T00:17:11.442Z,100941.34
2022-12-08T00:19:39.439Z,100939.59
2022-12-08T00:22:09.002Z,100938.69
2022-12-08T00:24:40.488Z,100928.28
2022-12-08T00:27:10.246Z,100925.69
2022-12-08T00:29:37.344Z,100927.53
2022-12-08T00:32:06.111Z,100929.28
2022-12-08T00:34:33.827Z,100928.44
2022-12-08T00:37:01.034Z,100921.47
2022-12-08T00:39:28.668Z,100922.41
2022-12-08T00:42:14.284Z,100923.28
2022-12-08T00:44:44.235Z,100928.50
2022-12-08T00:47:12.864Z,100927.66
2022-12-08T00:49:40.045Z,100915.50
2022-12-08T00:52:08.231Z,100918.19
2022-12-08T00:54:35.396Z,100912.97
2022-12-08T00:57:03.384Z,100906.03
2022-12-08T00:59:30.521Z,100911.25
2022-12-08T01:01:57.586Z,100908.63
2022-12-08T01:04:24.964Z,100906.91
2022-12-08T01:06:52.351Z,100909.50
2022-12-08T01:09:19.801Z,100902.56
2022-12-08T01:11:47.841Z,100906.91
2022-12-08T01:14:15.284Z,100901.69
2022-12-08T01:16:43.561Z,100898.22
2022-12-08T01:19:13.932Z,100892.09
2022-12-08T01:21:41.702Z,100878.09
2022-12-08T01:24:17.228Z,100891.09
2022-12-08T01:26:45.105Z,100886.69
2022-12-08T01:29:12.392Z,100885.72
2022-12-08T01:31:39.766Z,100879.56
2022-12-08T01:34:08.347Z,100884.75
2022-12-08T01:36:39.744Z,100882.88
2022-12-08T01:39:17.493Z,100888.94
2022-12-08T01:41:47.624Z,100887.19
2022-12-08T01:44:14.484Z,100884.63
2022-12-08T01:46:48.573Z,100882.91
2022-12-08T01:49:26.740Z,100875.19
2022-12-08T01:52:11.171Z,100876.16
2022-12-08T01:54:49.761Z,100880.50
2022-12-08T01:57:31.129Z,100871.91
2022-12-08T02:00:18.262Z,100876.31
2022-12-08T02:03:11.137Z,100879.81
2022-12-08T02:05:40.409Z,100874.63
2022-12-08T02:08:12.732Z,100874.72
2022-12-08T02:10:42.705Z,100868.66
2022-12-08T02:13:14.852Z,100863.44
2022-12-08T02:16:01.023Z,100857.34
2022-12-08T02:18:40.489Z,100851.25
2022-12-08T02:21:22.399Z,100859.06
2022-12-08T02:24:14.694Z,100855.56
2022-12-08T02:27:13.582Z,100855.56
2022-12-08T02:30:11.264Z,100856.41
2022-12-08T02:33:20.854Z,100839.03
2022-12-08T02:35:56.774Z,100835.53
2022-12-08T02:38:51.680Z,100836.38
2022-12-08T02:41:52.203Z,100841.56
2022-12-08T02:44:48.560Z,100826.75
2022-12-08T02:47:20.445Z,100825.03
2022-12-08T02:49:47.819Z,100827.66
2022-12-08T02:52:14.731Z,100821.53
2022-12-08T02:54:53.401Z,100818.03
2022-12-08T02:57:55.713Z,100814.47
2022-12-08T03:00:27.775Z,100813.53
2022-12-08T03:03:44.097Z,100810.94
2022-12-08T03:06:35.739Z,100805.72
2022-12-08T03:09:14.691Z,100800.50
2022-12-08T03:12:11.614Z,100797.00
2022-12-08T03:14:45.646Z,100797.00
2022-12-08T03:17:15.800Z,100796.16
2022-12-08T03:19:46.114Z,100797.06
2022-12-08T03:22:16.187Z,100797.16
2022-12-08T03:24:46.327Z,100783.28
2022-12-08T03:27:24.748Z,100778.09
2022-12-08T03:29:55.006Z,100776.38
2022-12-08T03:32:54.177Z,100776.44
2022-12-08T03:35:30.060Z,100779.06
2022-12-08T03:38:24.756Z,100780.91
2022-12-08T03:41:10.559Z,100778.31
2022-12-08T03:43:38.359Z,100773.13
2022-12-08T03:46:06.663Z,100767.97
2022-12-08T03:48:33.969Z,100760.16
2022-12-08T03:51:01.059Z,100764.50
2022-12-08T03:53:29.761Z,100762.72
2022-12-08T03:55:56.717Z,100762.72
2022-12-08T03:58:23.775Z,100756.66
2022-12-08T04:00:50.947Z,100761.88
2022-12-08T04:03:18.159Z,100762.81
2022-12-08T04:05:45.266Z,100761.13
2022-12-08T04:08:12.434Z,100757.66
2022-12-08T04:10:40.688Z,100761.19
2022-12-08T04:13:07.881Z,100752.47
2022-12-08T04:15:35.180Z,100747.25
2022-12-08T04:18:05.361Z,100749.00
2022-12-08T04:20:32.458Z,100740.31
2022-12-08T04:22:59.552Z,100741.16
2022-12-08T04:25:26.867Z,100757.72
2022-12-08T04:27:54.190Z,100749.03
2022-12-08T04:30:21.206Z,100748.13
2022-12-08T04:32:48.468Z,100739.44
2022-12-08T04:35:15.922Z,100743.81
2022-12-08T04:37:44.321Z,100748.13
2022-12-08T04:40:13.211Z,100736.81
2022-12-08T04:42:40.817Z,100729.84
2022-12-08T04:45:08.486Z,100722.84
2022-12-08T04:47:35.876Z,100731.53
2022-12-08T04:50:04.174Z,100721.00
2022-12-08T04:52:31.730Z,100719.31
2022-12-08T04:54:58.820Z,100714.06
2022-12-08T04:57:26.006Z,100710.63
2022-12-08T04:59:53.683Z,100714.06
2022-12-08T05:02:20.876Z,100715.78
2022-12-08T05:04:48.098Z,100722.75
2022-12-08T05:07:15.144Z,100718.41
2022-12-08T05:09:42.202Z,100728.81
2022-12-08T05:12:09.471Z,100721.84
2022-12-08T05:14:36.785Z,100720.97
2022-12-08T05:17:09.355Z,100720.13
2022-12-08T05:19:36.810Z,100718.38
2022-12-08T05:22:03.956Z,100721.88
2022-12-08T05:24:31.051Z,100714.06
2022-12-08T05:26:59.520Z,100723.59
2022-12-08T05:29:26.778Z,100717.50
2022-12-08T05:31:54.212Z,100714.00
2022-12-08T05:34:21.511Z,100714.00
2022-12-08T05:36:48.737Z,100712.25
2022-12-08T05:39:16.195Z,100708.75
2022-12-08T05:41:43.400Z,100708.75
2022-12-08T05:44:10.606Z,100709.53
2022-12-08T05:46:37.943Z,100698.22
2022-12-08T05:49:05.158Z,100702.53
2022-12-08T05:51:32.655Z,100699.00
2022-12-08T05:54:00.150Z,100699.00
2022-12-08T05:56:28.537Z,100693.72
2022-12-08T05:58:56.028Z,100691.13
2022-12-08T06:01:30.727Z,100695.47
2022-12-08T06:04:00.702Z,100701.53
2022-12-08T06:06:28.417Z,100693.69
2022-12-08T06:08:55.667Z,100699.75
2022-12-08T06:11:29.580Z,100699.75
2022-12-08T06:13:57.343Z,100688.44
2022-12-08T06:16:26.880Z,100683.19
2022-12-08T06:18:54.878Z,100684.88
2022-12-08T06:21:22.274Z,100680.50
2022-12-08T06:23:52.401Z,100683.94
2022-12-08T06:26:21.077Z,100686.47
2022-12-08T06:28:49.409Z,100689.09
2022-12-08T06:31:24.015Z,100675.97
2022-12-08T06:33:53.346Z,100681.09
2022-12-08T06:36:53.349Z,100676.75
2022-12-08T06:39:20.426Z,100666.31
2022-12-08T06:42:06.064Z,100664.50
2022-12-08T06:44:34.109Z,100661.81
2022-12-08T06:47:01.715Z,100663.53
2022-12-08T06:49:28.858Z,100670.47
2022-12-08T06:51:56.071Z,100666.09
2022-12-08T06:54:23.166Z,100672.22
2022-12-08T06:56:50.470Z,100673.97
2022-12-08T06:59:19.530Z,100667.91
2022-12-08T07:01:47.570Z,100668.78
2022-12-08T07:04:15.319Z,100667.91
2022-12-08T07:06:42.404Z,100674.91
2022-12-08T07:09:09.563Z,100674.00
2022-12-08T07:11:39.099Z,100677.50
2022-12-08T07:14:06.409Z,100679.28
2022-12-08T07:16:33.811Z,100680.13
2022-12-08T07:19:01.249Z,100681.84
2022-12-08T07:21:28.344Z,100676.66
2022-12-08T07:23:57.843Z,100687.16
2022-12-08T07:26:26.849Z,100682.81
2022-12-08T07:28:54.210Z,100689.78
2022-12-08T07:31:25.470Z,100692.41
2022-12-08T07:33:53.162Z,100686.31
2022-12-08T07:36:20.269Z,100688.06
2022-12-08T07:38:47.805Z,100681.13
2022-12-08T07:41:23.474Z,100679.44
2022-12-08T07:43:51.944Z,100682.94
2022-12-08T07:46:21.924Z,100684.66
2022-12-08T07:48:49.382Z,100677.78
2022-12-08T07:51:17.204Z,100683.00
2022-12-08T07:53:53.225Z,100682.16
2022-12-08T07:56:21.946Z,100680.44
2022-12-08T07:58:49.199Z,100681.44
2022-12-08T08:01:30.792Z,100685.84
2022-12-08T08:04:05.276Z,100685.00
2022-12-08T08:06:34.297Z,100686.75
2022-12-08T08:09:01.604Z,100684.16
2022-12-08T08:11:28.939Z,100678.97
2022-12-08T08:13:57.524Z,100690.31
2022-12-08T08:16:24.836Z,100689.47
2022-12-08T08:18:52.550Z,100690.38
2022-12-08T08:24:08.709Z,100699.03
2022-12-08T08:26:37.350Z,100696.44
2022-12-08T08:29:04.525Z,100689.50
2022-12-08T08:31:31.725Z,100694.78
2022-12-08T08:34:04.903Z,100688.72
2022-12-08T08:36:32.454Z,100696.59
2022-12-08T08:38:59.791Z,100687.91
2022-12-08T08:41:27.237Z,100694.03
2022-12-08T08:43:55.432Z,100689.66
2022-12-08T08:46:22.602Z,100682.69
2022-12-08T08:48:49.789Z,100682.63
2022-12-08T08:51:16.906Z,100693.06
2022-12-08T08:53:44.104Z,100686.19
2022-12-08T08:56:18.133Z,100691.38
2022-12-08T08:58:48.474Z,100688.81
2022-12-08T09:01:21.910Z,100685.38
2022-12-08T09:03:50.032Z,100693.19
2022-12-08T09:06:18.301Z,100686.25
2022-12-08T09:08:47.996Z,100683.72
2022-12-08T09:11:15.851Z,100677.69
2022-12-08T09:13:43.002Z,100680.34
2022-12-08T09:16:12.416Z,100675.25
2022-12-08T09:18:39.777Z,100683.13
2022-12-08T09:21:13.181Z,100690.19
2022-12-08T09:23:41.020Z,100685.16
2022-12-08T09:26:08.947Z,100679.22
2022-12-08T09:28:36.261Z,100690.56
2022-12-08T09:31:03.988Z,100682.69
2022-12-08T09:33:34.940Z,100689.56
2022-12-08T09:36:06.194Z,100695.56
2022-12-08T09:38:33.961Z,100685.94
2022-12-08T09:41:49.945Z,100678.97
2022-12-08T09:44:57.413Z,100679.09
2022-12-08T09:47:58.260Z,100677.47
2022-12-08T09:50:35.533Z,100681.09
2022-12-08T09:53:35.314Z,100682.06
2022-12-08T09:56:12.808Z,100674.25
2022-12-08T09:59:23.169Z,100682.13
2022-12-08T10:01:51.048Z,100675.06
2022-12-08T10:04:37.315Z,100683.84
2022-12-08T10:07:20.451Z,100669.16
2022-12-08T10:10:41.860Z,100673.56
2022-12-08T10:13:39.751Z,100667.56
2022-12-08T10:16:21.164Z,100666.69
2022-12-08T10:19:20.365Z,100661.38
2022-12-08T10:21:48.222Z,100659.63
2022-12-08T10:24:37.337Z,100663.09
2022-12-08T10:27:11.361Z,100659.53
2022-12-08T10:29:40.593Z,100656.84
2022-12-08T10:32:20.319Z,100655.97
2022-12-08T10:35:13.171Z,100654.25
2022-12-08T10:37:40.789Z,100657.78
2022-12-08T10:40:16.550Z,100647.44
2022-12-08T10:42:52.252Z,100648.22
2022-12-08T10:45:23.253Z,100646.44
2022-12-08T10:48:17.960Z,100647.28
2022-12-08T10:50:52.358Z,100647.31
2022-12-08T10:53:34.265Z,100634.38
2022-12-08T10:56:04.477Z,100640.53
2022-12-08T10:58:35.834Z,100636.22
2022-12-08T11:01:28.243Z,100642.41
2022-12-08T11:04:02.663Z,100646.03
2022-12-08T11:06:37.604Z,100640.94
2022-12-08T11:09:15.435Z,100631.50
2022-12-08T11:11:54.658Z,100625.50
2022-12-08T11:14:25.700Z,100628.28
2022-12-08T11:17:28.720Z,100626.69
2022-12-08T11:20:09.832Z,100618.06
2022-12-08T11:22:45.944Z,100622.50
2022-12-08T11:25:21.243Z,100616.47
2022-12-08T11:27:51.342Z,100611.34
2022-12-08T11:30:23.920Z,100602.69
2022-12-08T11:33:07.122Z,100607.19
2022-12-08T11:35:41.798Z,100598.69
2022-12-08T11:38:22.709Z,100597.91
2022-12-08T11:40:56.464Z,100594.50
2022-12-08T11:43:35.920Z,100589.19
2022-12-08T11:46:24.629Z,100594.34
2022-12-08T11:49:06.381Z,100591.66
2022-12-08T11:51:57.232Z,100588.88
2022-12-08T11:54:36.265Z,100591.31
2022-12-08T11:57:13.174Z,100589.38
2022-12-08T11:59:49.699Z,100590.09
2022-12-08T12:02:30.120Z,100586.47
2022-12-08T12:05:47.492Z,100582.91
2022-12-08T12:09:13.749Z,100578.41
2022-12-08T12:12:29.082Z,100580.97
2022-12-08T12:15:23.688Z,100575.69
2022-12-08T12:18:16.706Z,100571.31
2022-12-08T12:20:58.818Z,100566.91
2022-12-08T12:23:44.952Z,100567.75
2022-12-08T12:26:31.064Z,100569.47
2022-12-08T12:29:00.045Z,100572.16
2022-12-08T12:31:35.288Z,100567.81
2022-12-08T12:34:20.866Z,100566.94
2022-12-08T12:36:59.188Z,100566.94
2022-12-08T12:39:30.450Z,100563.47
2022-12-08T12:42:01.335Z,100564.34
2022-12-08T12:44:28.239Z,100566.84
2022-12-08T12:46:58.431Z,100565.88
2022-12-08T12:49:40.768Z,100560.50
2022-12-08T12:52:16.899Z,100555.97
2022-12-08T12:55:10.112Z,100561.16
2022-12-08T12:57:40.172Z,100563.72
2022-12-08T13:00:17.888Z,100561.88
2022-12-08T13:02:45.149Z,100558.38
2022-12-08T13:05:27.555Z,100554.88
2022-12-08T13:08:24.267Z,100548.78
2022-12-08T13:11:05.805Z,100551.38
2022-12-08T13:13:33.549Z,100551.38
2022-12-08T13:16:18.541Z,100554.00
2022-12-08T13:18:51.310Z,100549.56
2022-12-08T13:21:24.589Z,100556.53
2022-12-08T13:24:10.260Z,100554.00
2022-12-08T13:27:11.295Z,100555.78
2022-12-08T13:29:39.239Z,100547.09
2022-12-08T13:32:09.806Z,100554.19
2022-12-08T13:34:55.080Z,100548.22
2022-12-08T13:37:54.315Z,100551.00
2022-12-08T13:40:28.306Z,100551.94
2022-12-08T13:43:26.506Z,100548.66
2022-12-08T13:47:02.841Z,100541.84
2022-12-08T13:55:49.668Z,100529.06
2022-12-08T13:57:34.960Z,100525.59
2022-12-08T14:00:18.756Z,100523.84
2022-12-08T14:02:52.907Z,100522.97
2022-12-08T14:05:35.142Z,100525.53
2022-12-08T14:11:47.969Z,100512.28
2022-12-08T14:15:01.190Z,100515.78
2022-12-08T14:17:23.088Z,100518.34
2022-12-08T14:20:25.363Z,100525.31
2022-12-08T14:22:53.775Z,100522.63
2022-12-08T14:25:23.800Z,100520.00
2022-12-08T14:27:56.455Z,100525.22
2022-12-08T14:30:32.908Z,100535.66
2022-12-08T14:33:03.409Z,100524.34
2022-12-08T14:35:34.931Z,100539.09
2022-12-08T14:38:16.778Z,100535.50
2022-12-08T14:41:06.785Z,100537.16
2022-12-08T14:43:34.982Z,100531.88
2022-12-08T14:46:19.052Z,100544.84
2022-12-08T14:48:46.637Z,100538.72
2022-12-08T14:51:22.023Z,100534.25
2022-12-08T14:54:09.818Z,100533.28
2022-12-08T14:57:02.288Z,100527.09
2022-12-08T14:59:38.809Z,100521.75
2022-12-08T15:02:26.570Z,100524.31
2022-12-08T15:05:16.747Z,100519.00
2022-12-08T15:07:55.502Z,100518.84
2022-12-08T15:10:32.235Z,100529.13
2022-12-08T15:13:05.143Z,100530.78
2022-12-08T15:15:55.399Z,100531.53
2022-12-08T15:18:39.601Z,100534.00
2022-12-08T15:21:13.031Z,100532.13
2022-12-08T15:23:49.045Z,100528.47
2022-12-08T15:26:26.970Z,100541.44
2022-12-08T15:28:55.178Z,100537.00
2022-12-08T15:31:22.693Z,100544.75
2022-12-08T15:33:50.109Z,100536.78
2022-12-08T15:36:17.231Z,100541.94
2022-12-08T15:38:44.395Z,100547.06
2022-12-08T15:41:14.805Z,100540.97
2022-12-08T15:43:42.678Z,100547.91
2022-12-08T15:46:10.079Z,100556.59
2022-12-08T15:48:38.008Z,100552.19
2022-12-08T15:51:05.327Z,100551.25
2022-12-08T15:53:32.569Z,100548.59
2022-12-08T15:56:26.843Z,100552.94
2022-12-08T15:58:55.709Z,100553.78
2022-12-08T16:01:24.305Z,100551.13
2022-12-08T16:09:38.350Z,100559.59
2022-12-08T16:13:13.435Z,100555.19
2022-12-08T16:18:15.228Z,100550.63
2022-12-08T16:21:07.417Z,100551.41
2022-12-08T16:23:42.787Z,100543.59
2022-12-08T16:27:06.961Z,100545.31
2022-12-08T16:29:16.697Z,100537.56
2022-12-08T16:31:43.935Z,100533.25
2022-12-08T16:34:11.269Z,100535.84
2022-12-08T16:36:38.667Z,100527.16
2022-12-08T16:42:14.826Z,100527.22
2022-12-08T16:44:42.629Z,100528.09
2022-12-08T16:47:10.447Z,100523.75
2022-12-08T16:49:39.408Z,100526.38
2022-12-08T16:52:07.274Z,100518.56
2022-12-08T16:54:34.694Z,100528.09
2022-12-08T16:57:01.902Z,100521.09
2022-12-08T16:59:31.061Z,100508.88
2022-12-08T17:01:58.398Z,100514.88
2022-12-08T17:04:32.673Z,100519.94
2022-12-08T17:07:00.087Z,100518.88
2022-12-08T17:09:28.861Z,100512.59
2022-12-08T17:12:01.917Z,100516.75
2022-12-08T17:14:35.146Z,100513.16
2022-12-08T17:17:02.689Z,100513.91
2022-12-08T17:19:29.967Z,100510.38
2022-12-08T17:21:57.130Z,100516.47
2022-12-08T17:24:25.190Z,100527.81
2022-12-08T17:26:52.861Z,100528.81
2022-12-08T17:29:19.914Z,100529.75
2022-12-08T17:31:47.058Z,100528.09
2022-12-08T17:34:14.453Z,100516.88
2022-12-08T17:36:41.516Z,100516.94
2022-12-08T17:39:13.375Z,100522.19
2022-12-08T17:41:43.569Z,100523.06
2022-12-08T17:44:19.185Z,100524.88
2022-12-08T17:46:52.420Z,100519.63
2022-12-08T17:49:25.829Z,100524.91
2022-12-08T17:51:55.930Z,100517.97
2022-12-08T17:54:23.912Z,100529.28
2022-12-08T17:56:51.379Z,100531.09
2022-12-08T17:59:19.239Z,100533.75
2022-12-08T18:01:46.598Z,100530.25
2022-12-08T18:04:13.948Z,100532.03
2022-12-08T18:06:41.027Z,100525.09
2022-12-08T18:09:08.904Z,100527.72
2022-12-08T18:11:36.561Z,100525.13
2022-12-08T18:14:10.188Z,100515.59
2022-12-08T18:16:46.400Z,100521.78
2022-12-08T18:19:15.875Z,100515.69
2022-12-08T18:21:43.829Z,100519.19
2022-12-08T18:24:22.459Z,100517.44
2022-12-08T18:26:52.378Z,100522.69
2022-12-08T18:29:22.575Z,100510.50
2022-12-08T18:31:50.352Z,100515.69
2022-12-08T18:34:19.125Z,100515.63
2022-12-08T18:36:46.642Z,100511.34
2022-12-08T18:39:29.957Z,100518.22
2022-12-08T18:41:59.078Z,100516.56
2022-12-08T18:44:27.445Z,100511.38
2022-12-08T18:46:54.751Z,100515.72
2022-12-08T18:49:21.751Z,100511.38
2022-12-08T18:51:49.055Z,100511.34
2022-12-08T18:54:16.414Z,100509.50
2022-12-08T18:56:43.524Z,100503.41
2022-12-08T18:59:12.539Z,100496.34
2022-12-08T19:01:41.007Z,100494.66
2022-12-08T19:04:28.024Z,100497.22
2022-12-08T19:06:57.052Z,100496.34
2022-12-08T19:09:26.684Z,100493.81
2022-12-08T19:11:57.302Z,100499.06
2022-12-08T19:14:28.491Z,100496.44
2022-12-08T19:16:57.805Z,100487.78
2022-12-08T19:19:26.148Z,100495.63
2022-12-08T19:21:53.683Z,100499.97
2022-12-08T19:24:21.120Z,100499.09
2022-12-08T19:26:48.625Z,100503.44
2022-12-08T19:29:15.684Z,100507.81
2022-12-08T19:31:43.197Z,100511.34
2022-12-08T19:34:14.549Z,100507.78
2022-12-08T19:36:43.178Z,100507.75
2022-12-08T19:39:38.780Z,100505.97
2022-12-08T19:42:38.157Z,100509.44
2022-12-08T19:45:16.271Z,100504.13
2022-12-08T19:47:43.879Z,100504.09
2022-12-08T19:50:32.304Z,100510.19
2022-12-08T19:53:00.204Z,100505.00
2022-12-08T19:55:27.611Z,100504.09
2022-12-08T19:57:56.717Z,100507.53
2022-12-08T20:00:24.622Z,100498.81
2022-12-08T20:02:52.296Z,100506.66
2022-12-08T20:05:19.676Z,100500.56
2022-12-08T20:07:47.185Z,100496.13
2022-12-08T20:10:29.221Z,100496.97
2022-12-08T20:13:16.645Z,100494.31
2022-12-08T20:15:45.241Z,100502.00
2022-12-08T20:18:14.981Z,100495.81
2022-12-08T20:20:43.690Z,100505.19
2022-12-08T20:23:11.302Z,100504.16
2022-12-08T20:25:41.843Z,100498.78
2022-12-08T20:28:09.157Z,100498.63
2022-12-08T20:30:39.845Z,100489.75
2022-12-08T20:33:07.431Z,100491.38
2022-12-08T20:35:34.690Z,100492.03
2022-12-08T20:38:02.276Z,100494.53
2022-12-08T20:40:29.591Z,100490.03
2022-12-08T20:42:56.632Z,100496.84
2022-12-08T20:45:23.723Z,100500.22
2022-12-08T20:47:50.937Z,100491.44
2022-12-08T20:50:18.420Z,100500.88
2022-12-08T20:52:45.762Z,100503.38
2022-12-08T20:55:12.989Z,100498.09
2022-12-08T20:57:43.301Z,100495.47
2022-12-08T21:00:12.034Z,100493.63
2022-12-08T21:02:46.872Z,100496.13
2022-12-08T21:05:16.394Z,100492.63
2022-12-08T21:07:44.191Z,100490.03
2022-12-08T21:10:12.005Z,100499.53
2022-12-08T21:12:39.726Z,100492.53
2022-12-08T21:15:07.792Z,100497.72
2022-12-08T21:17:35.314Z,100496.81
2022-12-08T21:20:02.870Z,100501.13
2022-12-08T21:22:30.029Z,100493.19
2022-12-08T21:24:57.263Z,100500.06
2022-12-08T21:27:24.623Z,100497.44
2022-12-08T21:29:51.957Z,100494.75
2022-12-08T21:32:19.393Z,100500.72
2022-12-08T21:34:46.844Z,100501.59
2022-12-08T21:37:13.937Z,100499.81
2022-12-08T21:39:41.253Z,100502.47
2022-12-08T21:42:33.738Z,100500.84
2022-12-08T21:45:01.407Z,100505.38
2022-12-08T21:47:28.670Z,100513.31
2022-12-08T21:49:58.768Z,100516.06
2022-12-08T21:52:26.628Z,100507.50
2022-12-08T21:54:53.898Z,100508.50
2022-12-08T21:57:20.949Z,100512.03
2022-12-08T21:59:48.159Z,100513.88
2022-12-08T22:02:20.839Z,100509.44
2022-12-08T22:04:50.380Z,100506.84
2022-12-08T22:07:18.898Z,100514.63
2022-12-08T22:09:46.416Z,100515.38
2022-12-08T22:12:13.875Z,100515.19
2022-12-08T22:14:41.126Z,100512.53
2022-12-08T22:17:08.534Z,100506.38
2022-12-08T22:19:35.852Z,100506.34
2022-12-08T22:22:03.487Z,100509.75
2022-12-08T22:24:31.280Z,100504.41
2022-12-08T22:26:58.723Z,100511.22
2022-12-08T22:29:26.136Z,100505.00
2022-12-08T22:31:53.526Z,100511.88
2022-12-08T22:34:20.847Z,100508.41
2022-12-08T22:36:49.059Z,100503.25
2022-12-08T22:39:16.578Z,100507.56
2022-12-08T22:41:43.811Z,100502.44
2022-12-08T22:44:14.161Z,100500.72
2022-12-08T22:46:41.217Z,100493.91
2022-12-08T22:49:08.309Z,100494.84
2022-12-08T22:51:38.807Z,100499.16
2022-12-08T22:54:06.069Z,100496.56
2022-12-08T22:56:33.645Z,100492.97
2022-12-08T22:59:01.053Z,100492.06
2022-12-08T23:01:33.658Z,100498.03
2022-12-08T23:04:01.630Z,100494.44
2022-12-08T23:06:30.850Z,100497.91
2022-12-08T23:08:59.264Z,100493.53
2022-12-08T23:11:30.648Z,100498.72
2022-12-08T23:14:01.104Z,100496.16
2022-12-08T23:16:29.005Z,100494.50
2022-12-08T23:18:56.549Z,100494.53
2022-12-08T23:21:23.976Z,100501.53
2022-12-08T23:23:51.844Z,100505.03
2022-12-08T23:26:27.420Z,100490.34
2022-12-08T23:28:56.372Z,100498.28
2022-12-08T23:31:24.847Z,100493.03
2022-12-08T23:33:53.383Z,100492.09
2022-12-08T23:36:22.758Z,100489.47
2022-12-08T23:38:49.779Z,100490.19
2022-12-08T23:41:17.337Z,100485.72
2022-12-08T23:43:51.940Z,100489.16
2022-12-08T23:46:22.605Z,100490.00
2022-12-08T23:48:51.357Z,100490.06
2022-12-08T23:51:19.614Z,100490.19
2022-12-08T23:53:47.432Z,100487.66
2022-12-08T23:56:17.028Z,100480.78
2022-12-08T23:58:45.212Z,100484.41
